Time;durP1;ratioP1;P1;durP2;ratioP2;P2;SDS_P1;SDS_P2;PMS_P1;PMS_P2;Temp;Humidity;BMP_temperature;BMP_pressure;BME280_temperature;BME280_humidity;BME280_pressure;Samples;Min_cycle;Max_cycle;Signal;HPM_P1;HPM_P2
2022/12/02 00:01:20;;;;;;;;;;;;;;;16.40;45.70;101373.44;5055808;28;1914;-53
2022/12/02 00:03:46;;;;;;;;;;;;;;;17.64;42.43;101371.75;5052697;28;1270;-52
2022/12/02 00:06:14;;;;;;;;;;;;;;;16.58;44.76;101371.44;5047577;28;898;-52
2022/12/02 00:08:40;;;;;;;;;;;;;;;16.07;46.09;101367.06;5041946;28;1167;-52
2022/12/02 00:11:17;;;;;;;;;;;;;;;17.19;43.82;101353.88;5037836;28;1148;-53
2022/12/02 00:13:42;;;;;;;;;;;;;;;16.81;44.52;101361.22;5037921;28;1108;-52
2022/12/02 00:16:15;;;;;;;;;;;;;;;16.20;45.80;101349.38;5038347;28;1175;-52
2022/12/02 00:18:40;;;;;;;;;;;;;;;16.16;46.19;101369.31;5055463;28;893;-53
2022/12/02 00:21:06;;;;;;;;;;;;;;;17.63;42.40;101350.88;5055746;28;1987;-52
2022/12/02 00:23:31;;;;;;;;;;;;;;;16.57;44.75;101347.81;5055463;28;1096;-53
2022/12/02 00:25:56;;;;;;;;;;;;;;;16.11;46.27;101350.91;5055255;28;2309;-52
2022/12/02 00:28:22;;;;;;;;;;;;;;;17.18;43.81;101347.56;5055652;28;1163;-50
2022/12/02 00:30:47;;;;;;;;;;;;;;;16.90;44.26;101354.19;5055523;28;905;-51
2022/12/02 00:33:14;;;;;;;;;;;;;;;16.24;45.72;101368.88;5037375;28;1378;-51
2022/12/02 00:35:39;;;;;;;;;;;;;;;16.19;46.03;101363.34;5055741;28;1176;-53
2022/12/02 00:38:05;;;;;;;;;;;;;;;17.34;43.10;101362.22;5055579;28;1211;-50
2022/12/02 00:40:30;;;;;;;;;;;;;;;16.33;45.51;101359.09;5055450;28;1909;-50
2022/12/02 00:46:30;;;;;;;;;;;;;;;16.01;46.24;101373.53;5037461;28;1510;-52
2022/12/02 00:48:25;;;;;;;;;;;;;;;16.79;44.25;101385.38;5023749;28;1226;-49
2022/12/02 00:50:51;;;;;;;;;;;;;;;16.19;45.80;101379.81;5058562;28;1100;-50
2022/12/02 00:53:16;;;;;;;;;;;;;;;16.22;46.15;101387.53;5058809;28;1306;-50
2022/12/02 00:55:41;;;;;;;;;;;;;;;17.68;42.56;101392.13;5059030;28;1186;-52
2022/12/02 00:58:07;;;;;;;;;;;;;;;16.62;44.91;101375.34;5058750;28;2494;-51
2022/12/02 01:00:32;;;;;;;;;;;;;;;16.14;45.94;101396.19;5040873;28;1968;-51
2022/12/02 01:02:58;;;;;;;;;;;;;;;15.96;46.61;101400.91;5058779;28;1262;-51
2022/12/02 01:05:23;;;;;;;;;;;;;;;17.49;42.92;101388.16;5040478;28;1352;-51
2022/12/02 01:07:49;;;;;;;;;;;;;;;16.54;45.06;101393.09;5040917;28;1115;-51
2022/12/02 01:10:14;;;;;;;;;;;;;;;16.03;46.33;101382.38;5058695;28;1223;-50
2022/12/02 01:12:40;;;;;;;;;;;;;;;17.30;43.36;101388.56;5040629;28;1226;-52
2022/12/02 01:15:05;;;;;;;;;;;;;;;16.85;44.13;101379.66;5058329;28;1151;-52
2022/12/02 01:17:31;;;;;;;;;;;;;;;16.23;45.75;101368.06;5058459;28;1163;-52
2022/12/02 01:19:57;;;;;;;;;;;;;;;16.20;46.04;101371.31;5040517;28;1977;-52
2022/12/02 01:22:22;;;;;;;;;;;;;;;17.54;42.83;101377.19;5058509;28;1171;-52
2022/12/02 01:24:49;;;;;;;;;;;;;;;16.49;45.15;101383.97;5034033;28;1275;-51
2022/12/02 01:27:15;;;;;;;;;;;;;;;16.04;46.05;101378.50;5041034;28;1838;-53
2022/12/02 01:29:40;;;;;;;;;;;;;;;17.34;43.44;101373.22;5058091;28;1162;-52
2022/12/02 01:32:05;;;;;;;;;;;;;;;16.60;44.74;101380.25;5058530;28;1083;-52
2022/12/02 01:34:31;;;;;;;;;;;;;;;16.09;46.10;101386.00;5057880;28;1199;-53
2022/12/02 01:36:56;;;;;;;;;;;;;;;15.83;46.77;101385.66;5058397;28;1210;-50
2022/12/02 01:39:22;;;;;;;;;;;;;;;17.43;43.04;101382.63;5057818;28;1964;-53
2022/12/02 01:41:47;;;;;;;;;;;;;;;16.54;44.90;101387.59;5058068;28;1132;-51
2022/12/02 01:44:13;;;;;;;;;;;;;;;16.14;45.95;101387.97;5023685;28;1219;-51
2022/12/02 01:46:38;;;;;;;;;;;;;;;17.62;42.65;101368.44;5036349;28;1172;-52
2022/12/02 01:49:03;;;;;;;;;;;;;;;16.59;44.75;101381.31;5047771;28;1049;-49
2022/12/02 01:51:29;;;;;;;;;;;;;;;16.12;45.86;101379.16;5040116;28;1515;-52
2022/12/02 01:53:54;;;;;;;;;;;;;;;16.91;44.23;101375.91;5057745;28;1109;-52
2022/12/02 01:56:20;;;;;;;;;;;;;;;16.88;44.06;101370.06;5040209;28;1836;-51
2022/12/02 01:58:45;;;;;;;;;;;;;;;16.17;45.97;101365.50;5040233;28;1029;-52
2022/12/02 02:01:21;;;;;;;;;;;;;;;16.87;44.36;101371.16;5031568;28;1914;-52
2022/12/02 02:03:47;;;;;;;;;;;;;;;17.06;43.77;101364.22;5057789;28;1159;-52
2022/12/02 02:06:12;;;;;;;;;;;;;;;16.29;45.73;101377.16;5039225;28;1593;-52
2022/12/02 02:08:38;;;;;;;;;;;;;;;16.05;46.32;101384.84;5057412;28;1194;-52
2022/12/02 02:11:04;;;;;;;;;;;;;;;17.57;42.57;101385.75;5039409;28;1460;-52
2022/12/02 02:13:29;;;;;;;;;;;;;;;16.55;45.08;101383.78;5057388;28;1123;-51
2022/12/02 02:15:54;;;;;;;;;;;;;;;16.13;46.09;101386.28;5039733;28;1144;-51
2022/12/02 02:18:20;;;;;;;;;;;;;;;15.87;46.72;101389.53;5056947;28;1144;-52
2022/12/02 02:20:45;;;;;;;;;;;;;;;17.36;43.43;101375.69;5056859;28;1977;-52
2022/12/02 02:23:21;;;;;;;;;;;;;;;16.94;43.88;101385.53;5023239;28;1122;-53
2022/12/02 02:25:47;;;;;;;;;;;;;;;16.25;45.79;101385.06;5039380;28;1234;-51
2022/12/02 02:28:15;;;;;;;;;;;;;;;16.18;45.89;101400.09;5038984;28;2821;-53
2022/12/02 02:30:42;;;;;;;;;;;;;;;17.58;42.47;101389.31;5039273;28;1235;-52
2022/12/02 02:33:08;;;;;;;;;;;;;;;16.54;44.90;101389.53;5057229;28;1117;-53
2022/12/02 02:35:33;;;;;;;;;;;;;;;16.04;46.05;101389.50;5057022;28;1217;-51
2022/12/02 02:37:59;;;;;;;;;;;;;;;17.19;43.76;101382.16;5022875;28;1464;-51
2022/12/02 02:40:24;;;;;;;;;;;;;;;17.00;43.73;101390.00;5038981;28;1910;-52
2022/12/02 02:42:52;;;;;;;;;;;;;;;16.31;45.65;101387.88;5022417;28;1559;-53
2022/12/02 02:45:18;;;;;;;;;;;;;;;15.91;46.33;101381.66;5057204;28;1035;-52
2022/12/02 02:47:44;;;;;;;;;;;;;;;16.74;44.56;101406.19;5039115;28;1207;-52
2022/12/02 02:50:09;;;;;;;;;;;;;;;17.14;43.42;101384.91;5034028;28;1114;-52
2022/12/02 02:52:35;;;;;;;;;;;;;;;16.25;45.73;101385.06;5030131;28;1224;-52
2022/12/02 02:55:00;;;;;;;;;;;;;;;16.05;46.30;101396.63;5038450;28;1142;-53
2022/12/02 02:57:26;;;;;;;;;;;;;;;17.57;42.57;101404.16;5042749;28;2655;-53
2022/12/02 02:59:53;;;;;;;;;;;;;;;16.55;45.01;101396.66;5037622;28;1921;-52
2022/12/02 03:02:18;;;;;;;;;;;;;;;16.22;45.67;101401.25;5026072;28;1408;-53
2022/12/02 03:04:44;;;;;;;;;;;;;;;17.71;42.37;101402.63;5056648;28;1348;-53
2022/12/02 03:07:10;;;;;;;;;;;;;;;16.67;44.54;101404.75;5038045;28;1250;-53
2022/12/02 03:09:36;;;;;;;;;;;;;;;16.22;45.72;101403.97;5056373;28;1147;-51
2022/12/02 03:12:01;;;;;;;;;;;;;;;17.47;42.78;101396.66;5055891;28;1187;-53
2022/12/02 03:14:27;;;;;;;;;;;;;;;16.55;44.80;101404.88;5056480;28;1104;-53
2022/12/02 03:16:52;;;;;;;;;;;;;;;16.12;45.93;101401.09;5042364;28;1216;-52
2022/12/02 03:19:18;;;;;;;;;;;;;;;16.16;46.25;101403.09;5055870;28;899;-53
2022/12/02 03:21:43;;;;;;;;;;;;;;;17.54;42.87;101383.50;5056847;28;1909;-53
2022/12/02 03:24:09;;;;;;;;;;;;;;;16.50;45.17;101397.44;5056533;28;1132;-52
2022/12/02 03:26:34;;;;;;;;;;;;;;;16.11;46.14;101399.47;5056118;28;2258;-52
2022/12/02 03:29:00;;;;;;;;;;;;;;;17.10;43.96;101408.50;5038335;28;1136;-52
2022/12/02 03:31:25;;;;;;;;;;;;;;;17.10;43.41;101398.31;5038078;28;1128;-52
2022/12/02 03:33:50;;;;;;;;;;;;;;;16.35;45.22;101398.09;5056211;28;1219;-52
2022/12/02 03:36:16;;;;;;;;;;;;;;;16.27;45.82;101406.78;5037567;28;1188;-52
2022/12/02 03:38:41;;;;;;;;;;;;;;;17.52;42.52;101413.22;5038152;28;1135;-52
2022/12/02 03:41:07;;;;;;;;;;;;;;;16.53;45.13;101409.81;5055857;28;1964;-51
2022/12/02 03:43:32;;;;;;;;;;;;;;;16.13;46.00;101408.25;5055870;28;925;-53
2022/12/02 03:45:58;;;;;;;;;;;;;;;16.02;46.46;101419.09;5056027;28;1151;-52
2022/12/02 03:48:24;;;;;;;;;;;;;;;17.62;42.58;101395.94;5024566;28;1262;-53
2022/12/02 03:50:49;;;;;;;;;;;;;;;16.85;44.38;101403.56;5055654;28;1187;-51
2022/12/02 03:53:14;;;;;;;;;;;;;;;16.28;45.64;101404.88;5055610;28;1081;-51
2022/12/02 03:55:40;;;;;;;;;;;;;;;17.59;42.46;101407.50;5055699;28;1108;-52
2022/12/02 03:58:06;;;;;;;;;;;;;;;16.90;43.91;101414.63;5055710;28;2657;-51
2022/12/02 04:00:32;;;;;;;;;;;;;;;16.36;45.51;101423.63;5052610;28;1975;-51
2022/12/02 04:02:57;;;;;;;;;;;;;;;16.06;46.04;101420.25;5055738;28;1128;-53
2022/12/02 04:05:23;;;;;;;;;;;;;;;17.34;43.10;101413.63;5055967;28;1104;-52
2022/12/02 04:07:48;;;;;;;;;;;;;;;16.90;44.12;101414.63;5050883;28;1176;-53
2022/12/02 04:10:14;;;;;;;;;;;;;;;16.33;45.58;101419.47;5045925;28;1203;-52
2022/12/02 04:12:39;;;;;;;;;;;;;;;16.01;45.96;101425.66;5055768;28;1244;-49
2022/12/02 04:15:05;;;;;;;;;;;;;;;17.47;42.98;101418.66;5055532;28;1092;-50
2022/12/02 04:17:30;;;;;;;;;;;;;;;16.80;44.34;101418.06;5043449;28;1163;-52
2022/12/02 04:19:56;;;;;;;;;;;;;;;16.28;45.55;101411.19;5053253;28;1906;-52
2022/12/02 04:22:21;;;;;;;;;;;;;;;17.55;42.62;101425.59;5055493;28;1107;-48
2022/12/02 04:24:47;;;;;;;;;;;;;;;16.66;44.87;101425.06;5051266;28;1143;-52
2022/12/02 04:27:12;;;;;;;;;;;;;;;16.19;45.62;101426.44;5051343;28;2338;-52
2022/12/02 04:29:37;;;;;;;;;;;;;;;16.11;46.06;101433.19;5059806;28;1167;-54
2022/12/02 04:32:03;;;;;;;;;;;;;;;17.65;42.56;101424.84;5059654;28;949;-53
2022/12/02 04:34:29;;;;;;;;;;;;;;;16.68;44.67;101431.97;5058727;28;1073;-53
2022/12/02 04:36:54;;;;;;;;;;;;;;;16.22;45.79;101445.16;5059493;28;1242;-52
2022/12/02 04:39:19;;;;;;;;;;;;;;;16.40;45.26;101438.50;5059081;28;1291;-55
2022/12/02 04:41:45;;;;;;;;;;;;;;;17.50;42.69;101439.31;5059644;28;1982;-55
2022/12/02 04:44:10;;;;;;;;;;;;;;;16.55;45.07;101441.44;5058744;28;1132;-55
2022/12/02 04:46:36;;;;;;;;;;;;;;;16.14;45.99;101449.16;5049408;28;1218;-54
2022/12/02 04:49:02;;;;;;;;;;;;;;;16.54;45.33;101448.00;5037209;28;1283;-52
2022/12/02 04:51:27;;;;;;;;;;;;;;;17.52;42.89;101450.88;5053427;28;1238;-54
2022/12/02 04:53:52;;;;;;;;;;;;;;;16.51;44.93;101447.66;5056781;28;986;-55
2022/12/02 04:56:18;;;;;;;;;;;;;;;16.24;45.63;101464.91;5056170;28;1921;-45
2022/12/02 04:58:43;;;;;;;;;;;;;;;17.24;43.63;101461.09;5059099;28;1127;-57
2022/12/02 05:01:09;;;;;;;;;;;;;;;16.88;44.12;101464.31;5058556;28;1909;-59
2022/12/02 05:03:34;;;;;;;;;;;;;;;16.28;45.88;101463.31;5055726;28;1128;-62
2022/12/02 05:06:00;;;;;;;;;;;;;;;17.56;42.79;101457.53;5058220;28;1155;-62
2022/12/02 05:08:25;;;;;;;;;;;;;;;16.98;43.92;101458.09;5058535;28;850;-62
2022/12/02 05:10:51;;;;;;;;;;;;;;;16.37;45.36;101460.97;5058811;28;1136;-62
2022/12/02 05:13:16;;;;;;;;;;;;;;;17.15;43.70;101451.66;5057814;28;1197;-60
2022/12/02 05:15:42;;;;;;;;;;;;;;;17.48;42.84;101452.50;5039982;28;990;-56
2022/12/02 05:18:07;;;;;;;;;;;;;;;16.55;45.01;101470.78;5057618;28;1113;-60
2022/12/02 05:20:33;;;;;;;;;;;;;;;16.77;44.66;101462.53;5056937;28;1905;-57
2022/12/02 05:22:58;;;;;;;;;;;;;;;17.49;42.82;101462.38;5058067;28;1155;-58
2022/12/02 05:25:23;;;;;;;;;;;;;;;16.56;44.95;101458.72;5050248;28;1064;-56
2022/12/02 05:27:49;;;;;;;;;;;;;;;16.26;45.93;101465.50;5058262;28;2332;-57
2022/12/02 05:30:14;;;;;;;;;;;;;;;17.79;42.31;101457.13;5049328;28;1309;-56
2022/12/02 05:32:40;;;;;;;;;;;;;;;16.80;44.58;101455.69;5053334;28;1233;-64
2022/12/02 05:35:05;;;;;;;;;;;;;;;16.43;45.34;101471.75;5057715;28;1230;-65
2022/12/02 05:37:31;;;;;;;;;;;;;;;17.92;41.94;101471.53;5057987;28;1167;-56
2022/12/02 05:39:57;;;;;;;;;;;;;;;16.85;44.49;101475.81;5058068;28;1984;-59
2022/12/02 05:42:22;;;;;;;;;;;;;;;16.39;45.46;101476.09;5040438;28;1125;-53
2022/12/02 05:44:48;;;;;;;;;;;;;;;17.60;43.07;101477.91;5057571;28;1155;-47
2022/12/02 05:47:17;;;;;;;;;;;;;;;16.98;44.28;101485.56;5057973;28;1167;-57
2022/12/02 05:49:42;;;;;;;;;;;;;;;16.44;45.36;101494.56;5057754;28;1147;-58
2022/12/02 05:52:26;;;;;;;;;;;;;;;17.17;43.70;101493.47;5057659;28;1084;-53
2022/12/02 05:54:53;;;;;;;;;;;;;;;17.08;43.79;101496.69;5043736;28;1128;-56
2022/12/02 05:57:28;;;;;;;;;;;;;;;16.49;45.19;101493.78;5057312;28;1841;-55
2022/12/02 05:59:56;;;;;;;;;;;;;;;16.99;44.50;101502.91;5057691;28;1910;-62
2022/12/02 06:02:23;;;;;;;;;;;;;;;17.30;43.31;101498.53;5039684;28;1184;-58
2022/12/02 06:04:49;;;;;;;;;;;;;;;16.51;45.51;101508.06;5040723;28;1234;-57
2022/12/02 06:07:14;;;;;;;;;;;;;;;16.69;45.21;101510.50;5057311;28;1072;-62
2022/12/02 06:09:40;;;;;;;;;;;;;;;17.43;43.26;101514.59;5053739;28;988;-54
2022/12/02 06:12:10;;;;;;;;;;;;;;;16.57;45.09;101518.03;5039956;28;1100;-58
2022/12/02 06:14:35;;;;;;;;;;;;;;;16.29;46.14;101521.81;5040124;28;1176;-58
2022/12/02 06:17:01;;;;;;;;;;;;;;;17.83;42.28;101517.13;5026090;28;1175;-58
2022/12/02 06:19:33;;;;;;;;;;;;;;;16.76;44.74;101524.88;5057387;28;1183;-56
2022/12/02 06:21:58;;;;;;;;;;;;;;;16.32;45.69;101521.28;5039248;28;910;-58
2022/12/02 06:24:27;;;;;;;;;;;;;;;16.01;46.68;101520.84;5057109;28;1061;-60
2022/12/02 06:26:54;;;;;;;;;;;;;;;17.56;42.90;101513.34;5055443;28;1821;-58
2022/12/02 06:29:19;;;;;;;;;;;;;;;16.63;44.85;101525.25;5054762;28;1130;-60
2022/12/02 06:31:45;;;;;;;;;;;;;;;17.77;42.09;101513.50;5056872;28;1263;-55
2022/12/02 06:34:21;;;;;;;;;;;;;;;16.69;44.63;101527.00;5027596;28;1231;-56
2022/12/02 06:36:47;;;;;;;;;;;;;;;18.51;41.02;101519.19;5032912;28;1029;-58
2022/12/02 06:39:19;;;;;;;;;;;;;;;17.34;43.19;101523.59;5056779;28;1144;-59
2022/12/02 06:41:44;;;;;;;;;;;;;;;18.50;41.16;101512.03;5055911;28;1910;-60
2022/12/02 06:47:22;;;;;;;;;;;;;;;17.76;42.59;101536.59;5045757;28;1218;-60
2022/12/02 06:49:47;;;;;;;;;;;;;;;19.50;38.70;101535.72;5038513;28;1196;-56
2022/12/02 06:52:15;;;;;;;;;;;;;;;17.83;42.30;101530.88;5057226;28;1132;-58
2022/12/02 06:54:40;;;;;;;;;;;;;;;18.52;41.21;101540.13;5039586;28;1302;-58
2022/12/02 06:57:07;;;;;;;;;;;;;;;18.47;41.07;101543.69;5038904;28;1172;-61
2022/12/02 06:59:33;;;;;;;;;;;;;;;17.70;42.76;101552.22;5037807;28;1913;-57
2022/12/02 07:01:59;;;;;;;;;;;;;;;19.55;38.82;101546.78;5052202;28;1302;-61
2022/12/02 07:04:37;;;;;;;;;;;;;;;18.01;42.13;101547.00;5056785;28;1147;-56
2022/12/02 07:07:13;;;;;;;;;;;;;;;18.75;40.67;101550.69;5026186;28;1199;-57
2022/12/02 07:09:40;;;;;;;;;;;;;;;18.59;40.82;101546.22;5038676;28;1179;-58
2022/12/02 07:12:13;;;;;;;;;;;;;;;18.10;42.05;101548.16;5056403;28;1247;-57
2022/12/02 07:14:46;;;;;;;;;;;;;;;19.87;38.27;101553.16;5056820;28;1180;-58
2022/12/02 07:17:30;;;;;;;;;;;;;;;18.11;41.84;101554.50;5054032;28;1236;-58
2022/12/02 07:19:57;;;;;;;;;;;;;;;18.63;40.96;101547.34;5044661;28;1901;-57
2022/12/02 07:22:23;;;;;;;;;;;;;;;18.39;41.44;101557.97;5056171;28;922;-58
2022/12/02 07:24:53;;;;;;;;;;;;;;;18.55;41.34;101545.09;5056630;28;1128;-57
2022/12/02 07:27:20;;;;;;;;;;;;;;;19.80;38.23;101554.25;5046732;28;1453;-57
2022/12/02 07:29:46;;;;;;;;;;;;;;;18.15;41.84;101558.38;5038742;28;1152;-59
2022/12/02 07:32:11;;;;;;;;;;;;;;;18.72;40.97;101551.25;5030773;28;1141;-59
2022/12/02 07:34:37;;;;;;;;;;;;;;;18.57;40.94;101551.19;5056344;28;1139;-55
2022/12/02 07:37:02;;;;;;;;;;;;;;;17.95;42.60;101553.56;5056192;28;1191;-55
2022/12/02 07:39:28;;;;;;;;;;;;;;;19.78;38.91;101567.50;5052345;28;1014;-54
2022/12/02 07:41:53;;;;;;;;;;;;;;;18.27;41.67;101560.91;5053514;28;1909;-53
2022/12/02 07:44:18;;;;;;;;;;;;;;;19.24;40.13;101566.03;5055797;28;1045;-51
2022/12/02 07:46:44;;;;;;;;;;;;;;;19.13;39.90;101567.13;5051382;28;1223;-58
2022/12/02 07:49:09;;;;;;;;;;;;;;;18.05;42.45;101572.06;5050830;28;1313;-56
2022/12/02 07:51:35;;;;;;;;;;;;;;;19.13;40.25;101559.66;5056369;28;1132;-56
2022/12/02 07:54:00;;;;;;;;;;;;;;;18.19;41.93;101562.25;5056064;28;1148;-56
2022/12/02 07:56:25;;;;;;;;;;;;;;;19.09;40.47;101577.84;5056305;28;1104;-57
2022/12/02 07:58:51;;;;;;;;;;;;;;;19.31;39.59;101579.56;5047298;28;1729;-58
2022/12/02 08:01:16;;;;;;;;;;;;;;;18.17;42.16;101580.13;5059534;28;1906;-56
2022/12/02 08:03:42;;;;;;;;;;;;;;;18.86;40.88;101587.41;5057164;28;1507;-56
2022/12/02 08:06:07;;;;;;;;;;;;;;;18.25;42.07;101580.47;5045980;28;1152;-53
2022/12/02 08:08:33;;;;;;;;;;;;;;;18.94;40.72;101588.81;5047651;28;1402;-51
2022/12/02 08:10:58;;;;;;;;;;;;;;;19.77;38.62;101581.56;5054594;28;1060;-52
2022/12/02 08:13:24;;;;;;;;;;;;;;;18.22;42.17;101586.50;5059728;28;1045;-51
2022/12/02 08:15:49;;;;;;;;;;;;;;;18.03;42.66;101571.50;5059114;28;1273;-52
2022/12/02 08:18:14;;;;;;;;;;;;;;;18.15;42.31;101579.59;5060296;28;985;-45
2022/12/02 08:20:40;;;;;;;;;;;;;;;18.53;41.66;101586.69;5059175;28;1989;-54
2022/12/02 08:23:06;;;;;;;;;;;;;;;19.99;38.41;101584.06;5059513;28;1206;-55
2022/12/02 08:25:31;;;;;;;;;;;;;;;18.25;41.96;101580.47;5059284;28;1187;-54
2022/12/02 08:27:57;;;;;;;;;;;;;;;18.27;42.18;101581.03;5059612;28;1088;-53
2022/12/02 08:30:22;;;;;;;;;;;;;;;18.67;41.20;101573.25;5059826;28;1140;-52
2022/12/02 08:32:47;;;;;;;;;;;;;;;17.88;42.72;101589.53;5059827;28;1174;-53
2022/12/02 08:35:13;;;;;;;;;;;;;;;17.64;43.41;101582.69;5059299;28;1145;-53
2022/12/02 08:37:38;;;;;;;;;;;;;;;18.20;42.14;101580.44;5059742;28;1120;-49
2022/12/02 08:40:04;;;;;;;;;;;;;;;17.60;43.04;101580.47;5058449;28;1967;-53
2022/12/02 08:42:30;;;;;;;;;;;;;;;18.86;40.95;101581.03;5059392;28;1089;-46
2022/12/02 08:44:55;;;;;;;;;;;;;;;17.76;42.94;101586.13;5058429;28;1148;-54
2022/12/02 08:47:21;;;;;;;;;;;;;;;18.71;41.39;101587.34;5057796;28;1191;-49
2022/12/02 08:49:46;;;;;;;;;;;;;;;18.88;40.67;101581.66;5056904;28;1224;-51
2022/12/02 08:52:11;;;;;;;;;;;;;;;17.84;42.68;101590.28;5053531;28;1033;-53
2022/12/02 08:54:39;;;;;;;;;;;;;;;18.25;42.17;101585.97;5056719;28;1240;-52
2022/12/02 08:57:05;;;;;;;;;;;;;;;17.91;42.66;101585.44;5058207;28;1033;-52
2022/12/02 08:59:30;;;;;;;;;;;;;;;17.92;42.93;101581.59;5048878;28;1171;-47
2022/12/02 09:01:56;;;;;;;;;;;;;;;19.12;40.16;101582.81;5055288;28;1971;-50
2022/12/02 09:04:21;;;;;;;;;;;;;;;17.84;42.71;101580.13;5059313;28;1124;-53
2022/12/02 09:06:47;;;;;;;;;;;;;;;17.35;43.66;101581.06;5059408;28;1203;-47
2022/12/02 09:09:12;;;;;;;;;;;;;;;18.20;42.32;101585.94;5059187;28;1227;-55
2022/12/02 09:11:37;;;;;;;;;;;;;;;17.76;43.14;101581.44;5058284;28;1214;-48
2022/12/02 09:14:03;;;;;;;;;;;;;;;19.62;39.19;101580.44;5059283;28;1143;-48
2022/12/02 09:16:28;;;;;;;;;;;;;;;18.37;41.73;101571.16;5059405;28;1140;-55
2022/12/02 09:18:57;;;;;;;;;;;;;;;17.71;43.30;101575.91;5057449;28;1223;-50
2022/12/02 09:21:22;;;;;;;;;;;;;;;17.55;43.72;101574.09;5044311;28;1906;-49
2022/12/02 09:23:48;;;;;;;;;;;;;;;17.87;42.62;101574.09;5058991;28;1115;-54
2022/12/02 09:26:13;;;;;;;;;;;;;;;17.34;43.85;101567.56;5058320;28;973;-47
2022/12/02 09:28:39;;;;;;;;;;;;;;;19.35;39.76;101555.88;5058723;28;1104;-57
2022/12/02 09:31:04;;;;;;;;;;;;;;;17.82;42.88;101568.53;5058363;28;1211;-55
2022/12/02 09:33:29;;;;;;;;;;;;;;;17.33;43.69;101569.47;5058216;28;1108;-52
2022/12/02 09:35:55;;;;;;;;;;;;;;;18.13;42.10;101566.91;5058257;28;1108;-50
2022/12/02 09:38:20;;;;;;;;;;;;;;;17.66;43.40;101575.03;5056319;28;1310;-58
2022/12/02 09:40:46;;;;;;;;;;;;;;;19.56;39.39;101562.22;5054367;28;1910;-56
2022/12/02 09:43:11;;;;;;;;;;;;;;;18.17;42.14;101566.38;5054686;28;1140;-49
2022/12/02 09:45:36;;;;;;;;;;;;;;;17.42;43.69;101573.44;5034673;28;1314;-56
2022/12/02 09:48:02;;;;;;;;;;;;;;;18.16;42.31;101572.97;5058189;28;1152;-51
2022/12/02 09:50:27;;;;;;;;;;;;;;;17.70;43.15;101573.41;5058225;28;1190;-53
2022/12/02 09:52:53;;;;;;;;;;;;;;;17.45;43.52;101572.91;5058003;28;1502;-49
2022/12/02 09:55:19;;;;;;;;;;;;;;;18.81;40.71;101566.16;5040114;28;1196;-53
2022/12/02 09:57:45;;;;;;;;;;;;;;;17.58;43.31;101570.81;5057826;28;2107;-56
2022/12/02 10:00:14;;;;;;;;;;;;;;;18.36;41.92;101567.59;5052053;28;2046;-56
2022/12/02 10:02:42;;;;;;;;;;;;;;;18.02;42.30;101567.94;5057580;28;2127;-53
2022/12/02 10:05:17;;;;;;;;;;;;;;;17.31;43.74;101570.84;5057762;28;1974;-47
2022/12/02 10:07:43;;;;;;;;;;;;;;;18.56;41.18;101563.28;5038792;28;2073;-49
2022/12/02 10:10:18;;;;;;;;;;;;;;;17.44;43.60;101564.91;5035786;28;1794;-54
2022/12/02 10:12:43;;;;;;;;;;;;;;;19.38;39.52;101563.59;5032860;28;2005;-57
2022/12/02 10:15:13;;;;;;;;;;;;;;;18.50;41.44;101564.38;5027277;28;1183;-50
2022/12/02 10:17:38;;;;;;;;;;;;;;;17.56;42.99;101562.03;5039644;28;1105;-53
2022/12/02 10:20:04;;;;;;;;;;;;;;;17.62;43.52;101553.53;5040313;28;1959;-46
2022/12/02 10:22:30;;;;;;;;;;;;;;;17.73;43.08;101561.88;5056759;28;1263;-52
2022/12/02 10:24:55;;;;;;;;;;;;;;;17.38;43.80;101566.78;5057744;28;1207;-55
2022/12/02 10:27:25;;;;;;;;;;;;;;;19.15;40.09;101557.47;5056878;28;1104;-54
2022/12/02 10:29:50;;;;;;;;;;;;;;;17.69;43.11;101553.31;5057473;28;1197;-53
2022/12/02 10:32:23;;;;;;;;;;;;;;;18.12;42.45;101556.97;5048130;28;1207;-45
2022/12/02 10:35:08;;;;;;;;;;;;;;;18.10;42.07;101545.41;5056123;28;1005;-53
2022/12/02 10:37:34;;;;;;;;;;;;;;;17.32;43.48;101539.50;5047269;28;1188;-51
2022/12/02 10:40:11;;;;;;;;;;;;;;;18.27;42.33;101545.25;5053942;28;1906;-55
2022/12/02 10:42:37;;;;;;;;;;;;;;;17.44;43.69;101548.41;5052377;28;2468;-56
2022/12/02 10:45:17;;;;;;;;;;;;;;;19.14;40.18;101542.03;5046850;28;1053;-57
2022/12/02 10:47:43;;;;;;;;;;;;;;;18.72;40.66;101542.97;5033326;28;935;-54
2022/12/02 10:50:14;;;;;;;;;;;;;;;17.58;43.32;101551.56;5039161;28;1104;-53
2022/12/02 10:52:46;;;;;;;;;;;;;;;19.01;40.65;101550.81;5056956;28;1163;-54
2022/12/02 10:55:12;;;;;;;;;;;;;;;17.79;42.86;101555.31;5039222;28;1041;-54
2022/12/02 10:57:37;;;;;;;;;;;;;;;17.40;43.61;101553.63;5056780;28;1132;-51
2022/12/02 11:00:06;;;;;;;;;;;;;;;18.03;42.60;101549.47;5038660;28;1910;-55
2022/12/02 11:02:35;;;;;;;;;;;;;;;18.34;42.07;101549.66;5034851;28;1172;-55
2022/12/02 11:05:14;;;;;;;;;;;;;;;19.88;38.66;101554.81;5044841;28;986;-56
2022/12/02 11:07:39;;;;;;;;;;;;;;;18.13;42.30;101550.38;5056180;28;1152;-53
2022/12/02 11:10:05;;;;;;;;;;;;;;;18.04;42.77;101560.22;5028154;28;1213;-55
2022/12/02 11:12:54;;;;;;;;;;;;;;;18.34;41.65;101556.03;5055008;28;1977;-53
2022/12/02 11:15:34;;;;;;;;;;;;;;;17.56;43.19;101551.84;5054182;28;2342;-55
2022/12/02 11:17:59;;;;;;;;;;;;;;;18.72;40.92;101556.75;5055461;28;1118;-54
2022/12/02 11:20:28;;;;;;;;;;;;;;;17.70;43.16;101565.16;5050328;28;1985;-54
2022/12/02 11:23:04;;;;;;;;;;;;;;;19.31;39.81;101563.03;5050354;28;1302;-54
2022/12/02 11:25:42;;;;;;;;;;;;;;;18.33;41.62;101554.38;5055310;28;1116;-52
2022/12/02 11:28:20;;;;;;;;;;;;;;;17.73;43.32;101557.22;5056091;28;1080;-52
2022/12/02 11:30:46;;;;;;;;;;;;;;;18.73;40.98;101558.41;5034343;28;1236;-55
2022/12/02 11:33:31;;;;;;;;;;;;;;;17.72;43.29;101565.72;5045088;28;1136;-55
2022/12/02 11:36:10;;;;;;;;;;;;;;;19.96;38.62;101568.91;5053803;28;1323;-56
2022/12/02 11:38:46;;;;;;;;;;;;;;;18.28;41.83;101560.66;5055285;28;1112;-54
2022/12/02 11:41:11;;;;;;;;;;;;;;;18.88;41.07;101565.94;5042383;28;1882;-56
2022/12/02 11:43:45;;;;;;;;;;;;;;;18.66;41.19;101568.84;5034684;28;2096;-55
2022/12/02 11:46:15;;;;;;;;;;;;;;;18.28;42.03;101570.84;5053304;28;1247;-54
2022/12/02 11:48:50;;;;;;;;;;;;;;;19.98;38.34;101566.66;5037226;28;1116;-56
2022/12/02 11:51:30;;;;;;;;;;;;;;;18.42;41.73;101566.50;5035108;28;1312;-55
2022/12/02 11:53:55;;;;;;;;;;;;;;;19.02;40.68;101582.78;5052342;28;1386;-55
2022/12/02 11:56:21;;;;;;;;;;;;;;;18.51;41.47;101572.38;5052612;28;1191;-55
2022/12/02 11:58:46;;;;;;;;;;;;;;;18.94;40.72;101562.13;5053077;28;1259;-53
2022/12/02 12:01:12;;;;;;;;;;;;;;;20.13;38.00;101574.13;5045954;28;1905;-57
2022/12/02 12:03:41;;;;;;;;;;;;;;;18.47;41.49;101574.81;5050521;28;1287;-57
2022/12/02 12:06:08;;;;;;;;;;;;;;;19.60;39.27;101570.78;5055190;28;1100;-57
2022/12/02 12:08:34;;;;;;;;;;;;;;;18.90;40.36;101560.16;5054953;28;1179;-57
2022/12/02 12:11:18;;;;;;;;;;;;;;;18.26;41.97;101560.09;5054738;28;1163;-56
2022/12/02 12:14:02;;;;;;;;;;;;;;;20.03;38.30;101573.28;5054904;28;1873;-56
2022/12/02 12:16:31;;;;;;;;;;;;;;;18.30;41.74;101560.41;5050199;28;1702;-56
2022/12/02 12:18:58;;;;;;;;;;;;;;;19.26;40.11;101561.06;5055595;28;1144;-55
2022/12/02 12:21:29;;;;;;;;;;;;;;;18.55;41.36;101567.13;5055616;28;1906;-55
2022/12/02 12:23:55;;;;;;;;;;;;;;;19.22;40.27;101565.47;5054839;28;1116;-54
2022/12/02 12:26:30;;;;;;;;;;;;;;;19.94;38.43;101573.03;5024188;28;1561;-57
2022/12/02 12:28:59;;;;;;;;;;;;;;;18.46;41.57;101559.38;5048788;28;1171;-56
2022/12/02 12:31:25;;;;;;;;;;;;;;;19.96;38.62;101566.13;5053318;28;1528;-59
2022/12/02 12:33:50;;;;;;;;;;;;;;;19.04;40.42;101558.56;5042511;28;1561;-50
2022/12/02 12:36:16;;;;;;;;;;;;;;;18.41;42.12;101567.63;5054240;28;1117;-55
2022/12/02 12:38:41;;;;;;;;;;;;;;;19.70;38.89;101559.75;5055176;28;1261;-56
2022/12/02 12:41:07;;;;;;;;;;;;;;;18.43;41.66;101565.41;5055397;28;1902;-59
2022/12/02 12:43:32;;;;;;;;;;;;;;;18.12;42.32;101569.91;5055254;28;2180;-58
2022/12/02 12:45:57;;;;;;;;;;;;;;;19.00;40.47;101568.47;5056563;28;1104;-58
2022/12/02 12:48:23;;;;;;;;;;;;;;;18.08;42.50;101563.28;5057522;28;890;-58
2022/12/02 12:50:48;;;;;;;;;;;;;;;19.83;38.89;101575.78;5054338;28;1556;-58
2022/12/02 12:53:14;;;;;;;;;;;;;;;18.74;41.01;101554.53;5058644;28;1104;-57